createdAt,value
2018-05-15T00:00:47.400Z,7.07
2018-05-15T00:01:51.564Z,7.10
2018-05-15T00:02:56.200Z,7.43
2018-05-15T00:04:01.137Z,6.63
2018-05-15T00:05:06.105Z,6.90
2018-05-15T00:06:10.282Z,7.43
2018-05-15T00:07:15.221Z,6.70
2018-05-15T00:08:19.816Z,8.40
2018-05-15T00:09:24.763Z,8.03
2018-05-15T00:10:28.929Z,7.90
2018-05-15T00:11:33.101Z,7.00
2018-05-15T00:12:37.266Z,6.37
2018-05-15T00:13:41.467Z,5.97
2018-05-15T00:14:45.637Z,7.60
2018-05-15T00:15:49.860Z,6.90
2018-05-15T00:16:54.020Z,6.40
2018-05-15T00:17:58.954Z,7.50
2018-05-15T00:19:03.889Z,7.77
2018-05-15T00:20:08.842Z,7.40
2018-05-15T00:21:13.078Z,6.77
2018-05-15T00:22:17.278Z,7.60
2018-05-15T00:23:21.441Z,6.53
2018-05-15T00:24:26.379Z,8.23
2018-05-15T00:25:30.545Z,7.23
2018-05-15T00:26:36.244Z,8.30
2018-05-15T00:27:40.414Z,6.90
2018-05-15T00:28:44.648Z,7.90
2018-05-15T00:29:49.578Z,7.47
2018-05-15T00:30:53.754Z,7.40
2018-05-15T00:31:57.921Z,7.70
2018-05-15T00:33:02.109Z,7.70
2018-05-15T00:34:06.272Z,7.67
2018-05-15T00:35:10.437Z,7.43
2018-05-15T00:36:14.626Z,7.60
2018-05-15T00:37:19.561Z,7.17
2018-05-15T00:38:24.526Z,7.60
2018-05-15T00:39:28.741Z,7.57
2018-05-15T00:40:32.920Z,7.53
2018-05-15T00:41:37.374Z,7.47
2018-05-15T00:42:41.541Z,7.17
2018-05-15T00:43:45.717Z,7.00
2018-05-15T00:44:50.054Z,7.80
2018-05-15T00:45:54.990Z,7.90
2018-05-15T00:46:59.157Z,7.83
2018-05-15T00:48:03.328Z,7.80
2018-05-15T00:49:07.492Z,7.73
2018-05-15T00:50:11.721Z,6.60
2018-05-15T00:51:16.658Z,7.30
2018-05-15T00:52:20.837Z,7.50
2018-05-15T00:53:25.010Z,7.50
2018-05-15T00:54:29.172Z,7.40
2018-05-15T00:55:44.030Z,7.03
2018-05-15T00:56:48.966Z,8.20
2018-05-15T00:57:54.109Z,6.83
2018-05-15T00:58:59.035Z,7.93
2018-05-15T01:00:03.223Z,7.63
2018-05-15T01:01:08.230Z,7.30
2018-05-15T01:02:12.394Z,7.23
2018-05-15T01:03:16.788Z,6.80
2018-05-15T01:04:21.715Z,7.53
2018-05-15T01:05:26.655Z,6.93
2018-05-15T01:06:31.598Z,7.57
2018-05-15T01:07:35.777Z,8.90
2018-05-15T01:08:40.740Z,8.00
2018-05-15T01:09:45.121Z,7.90
2018-05-15T01:10:50.062Z,7.90
2018-05-15T01:11:54.993Z,7.40
2018-05-15T01:12:59.157Z,7.53
2018-05-15T01:14:03.334Z,8.50
2018-05-15T01:15:07.576Z,7.73
2018-05-15T01:16:11.763Z,8.40
2018-05-15T01:17:15.945Z,8.33
2018-05-15T01:18:20.154Z,7.73
2018-05-15T01:19:24.322Z,8.03
2018-05-15T01:20:28.586Z,8.40
2018-05-15T01:21:32.765Z,8.53
2018-05-15T01:22:36.939Z,7.90
2018-05-15T01:23:41.103Z,8.17
2018-05-15T01:24:46.033Z,8.53
2018-05-15T01:25:50.229Z,7.10
2018-05-15T01:26:55.169Z,7.53
2018-05-15T01:28:00.101Z,8.40
2018-05-15T01:29:04.715Z,8.23
2018-05-15T01:30:09.648Z,8.10
2018-05-15T01:31:13.814Z,7.60
2018-05-15T01:32:17.977Z,6.73
2018-05-15T01:33:22.143Z,6.80
2018-05-15T01:34:26.333Z,7.70
2018-05-15T01:35:30.502Z,7.63
2018-05-15T01:36:34.660Z,7.80
2018-05-15T01:37:38.849Z,7.30
2018-05-15T01:38:43.013Z,8.10
2018-05-15T01:39:47.948Z,7.50
2018-05-15T01:40:52.900Z,7.40
2018-05-15T01:41:57.064Z,7.37
2018-05-15T01:43:01.257Z,7.33
2018-05-15T01:44:05.421Z,8.17
2018-05-15T01:45:09.595Z,8.10
2018-05-15T01:46:13.756Z,7.03
2018-05-15T01:47:17.939Z,7.73
2018-05-15T01:48:22.129Z,7.73
2018-05-15T01:49:27.061Z,8.90
2018-05-15T01:50:32.053Z,7.43
2018-05-15T01:51:36.226Z,8.63
2018-05-15T01:52:40.442Z,8.40
2018-05-15T01:53:44.637Z,8.13
2018-05-15T01:54:48.805Z,8.20
2018-05-15T01:55:53.161Z,7.40
2018-05-15T01:56:58.099Z,6.97
2018-05-15T01:58:02.273Z,7.70
2018-05-15T01:59:06.447Z,7.93
2018-05-15T02:00:10.622Z,8.73
2018-05-15T02:01:14.847Z,7.43
2018-05-15T02:02:19.013Z,7.70
2018-05-15T02:03:23.344Z,7.20
2018-05-15T02:04:28.274Z,8.40
2018-05-15T02:05:32.445Z,8.67
2018-05-15T02:06:36.637Z,8.27
2018-05-15T02:07:40.810Z,7.60
2018-05-15T02:08:44.977Z,8.43
2018-05-15T02:09:49.154Z,8.10
2018-05-15T02:10:53.316Z,8.33
2018-05-15T02:11:57.955Z,7.53
2018-05-15T02:13:02.881Z,8.77
2018-05-15T02:14:07.809Z,7.20
2018-05-15T02:15:12.745Z,7.90
2018-05-15T02:16:16.900Z,8.13
2018-05-15T02:17:21.109Z,8.50
2018-05-15T02:18:25.282Z,8.10
2018-05-15T02:19:29.445Z,7.80
2018-05-15T02:20:33.698Z,7.20
2018-05-15T02:21:37.873Z,7.77
2018-05-15T02:22:42.561Z,7.40
2018-05-15T02:23:46.724Z,6.63
2018-05-15T02:24:51.658Z,7.83
2018-05-15T02:25:56.585Z,7.40
2018-05-15T02:27:01.520Z,8.20
2018-05-15T02:28:06.130Z,8.07
2018-05-15T02:29:11.069Z,8.13
2018-05-15T02:30:15.232Z,7.20
2018-05-15T02:31:19.415Z,7.33
2018-05-15T02:32:23.595Z,7.40
2018-05-15T02:33:27.831Z,7.40
2018-05-15T02:34:32.001Z,8.00
2018-05-15T02:35:36.937Z,7.93
2018-05-15T02:36:41.879Z,7.40
2018-05-15T02:37:46.041Z,7.70
2018-05-15T02:38:50.382Z,8.40
2018-05-15T02:39:55.308Z,7.60
2018-05-15T02:41:00.281Z,6.90
2018-05-15T02:42:04.444Z,7.67
2018-05-15T02:43:09.374Z,7.83
2018-05-15T02:44:14.504Z,7.80
2018-05-15T02:45:19.446Z,7.90
2018-05-15T02:46:23.623Z,7.73
2018-05-15T02:47:28.552Z,7.77
2018-05-15T02:48:32.709Z,8.33
2018-05-15T02:49:36.927Z,8.17
2018-05-15T02:50:41.093Z,7.90
2018-05-15T02:51:45.325Z,8.00
2018-05-15T02:52:50.267Z,7.73
2018-05-15T02:53:54.457Z,8.10
2018-05-15T02:54:59.481Z,8.40
2018-05-15T02:56:04.427Z,8.30
2018-05-15T02:57:08.589Z,7.83
2018-05-15T02:58:12.766Z,8.17
2018-05-15T02:59:16.990Z,7.87
2018-05-15T03:00:21.165Z,7.00
2018-05-15T03:01:25.330Z,7.33
2018-05-15T03:02:29.505Z,7.70
2018-05-15T03:03:33.674Z,8.20
2018-05-15T03:04:38.629Z,7.70
2018-05-15T03:05:43.030Z,8.10
2018-05-15T03:06:47.206Z,8.40
2018-05-15T03:07:51.378Z,7.50
2018-05-15T03:08:55.555Z,7.63
2018-05-15T03:10:00.504Z,8.13
2018-05-15T03:11:04.703Z,9.00
2018-05-15T03:12:08.872Z,8.33
2018-05-15T03:13:14.576Z,8.20
2018-05-15T03:14:18.747Z,9.10
2018-05-15T03:15:23.680Z,7.97
2018-05-15T03:16:28.609Z,7.60
2018-05-15T03:17:32.783Z,8.17
2018-05-15T03:18:36.990Z,8.10
2018-05-15T03:19:41.165Z,8.20
2018-05-15T03:20:45.337Z,8.17
2018-05-15T03:21:49.508Z,7.83
2018-05-15T03:22:53.681Z,7.17
2018-05-15T03:23:57.869Z,8.07
2018-05-15T03:25:02.038Z,7.90
2018-05-15T03:26:06.264Z,7.70
2018-05-15T03:27:10.429Z,7.73
2018-05-15T03:28:14.597Z,7.53
2018-05-15T03:29:18.769Z,8.30
2018-05-15T03:30:22.942Z,8.30
2018-05-15T03:31:27.187Z,8.40
2018-05-15T03:32:31.370Z,7.60
2018-05-15T03:33:35.537Z,8.40
2018-05-15T03:34:39.714Z,7.97
2018-05-15T03:35:43.872Z,8.57
2018-05-15T03:36:49.579Z,7.90
2018-05-15T03:37:53.777Z,9.20
2018-05-15T03:38:57.945Z,7.67
2018-05-15T03:40:02.895Z,8.03
2018-05-15T03:41:07.070Z,8.60
2018-05-15T03:42:11.245Z,8.20
2018-05-15T03:43:15.761Z,8.33
2018-05-15T03:44:19.933Z,7.70
2018-05-15T03:45:24.861Z,7.80
2018-05-15T03:46:29.794Z,7.30
2018-05-15T03:47:34.729Z,7.90
2018-05-15T03:48:39.353Z,8.37
2018-05-15T03:49:43.540Z,8.57
2018-05-15T03:50:48.493Z,8.57
2018-05-15T03:51:52.661Z,8.30
2018-05-15T03:52:56.829Z,8.40
2018-05-15T03:54:01.508Z,7.90
2018-05-15T03:55:05.726Z,7.50
2018-05-15T03:56:10.675Z,8.07
2018-05-15T03:57:14.850Z,8.60
2018-05-15T03:58:19.020Z,8.77
2018-05-15T03:59:23.641Z,8.77
2018-05-15T04:00:45.566Z,7.50
2018-05-15T04:02:07.504Z,8.53
2018-05-15T04:03:29.401Z,8.40
2018-05-15T04:04:51.631Z,8.70
2018-05-15T04:06:13.605Z,8.17
2018-05-15T04:07:35.558Z,8.47
2018-05-15T04:08:40.529Z,8.10
2018-05-15T04:09:44.701Z,7.83
2018-05-15T04:10:48.987Z,7.60
2018-05-15T04:11:53.174Z,9.20
2018-05-15T04:12:57.477Z,8.47
2018-05-15T04:14:01.670Z,8.20
2018-05-15T04:15:05.851Z,7.73
2018-05-15T04:16:10.019Z,8.00
2018-05-15T04:17:14.247Z,8.40
2018-05-15T04:18:18.417Z,8.47
2018-05-15T04:19:22.581Z,7.90
2018-05-15T04:20:26.745Z,8.27
2018-05-15T04:21:30.905Z,8.00
2018-05-15T04:22:35.110Z,7.20
2018-05-15T04:23:39.441Z,8.17
2018-05-15T04:24:44.378Z,8.67
2018-05-15T04:25:49.310Z,7.80
2018-05-15T04:26:54.249Z,8.00
2018-05-15T04:27:58.487Z,7.87
2018-05-15T04:29:03.841Z,7.43
2018-05-15T04:30:08.007Z,8.30
2018-05-15T04:31:12.173Z,8.47
2018-05-15T04:32:16.346Z,8.63
2018-05-15T04:33:20.521Z,8.33
2018-05-15T04:34:25.489Z,7.63
2018-05-15T04:35:29.689Z,7.20
2018-05-15T04:36:33.856Z,8.10
2018-05-15T04:37:38.792Z,8.23
2018-05-15T04:38:43.726Z,7.80
2018-05-15T04:39:48.844Z,7.83
2018-05-15T04:40:53.773Z,7.50
2018-05-15T04:41:58.718Z,7.70
2018-05-15T04:43:03.705Z,9.67
2018-05-15T04:44:07.878Z,7.30
2018-05-15T04:45:12.101Z,7.70
2018-05-15T04:46:16.267Z,7.97
2018-05-15T04:47:21.214Z,7.77
2018-05-15T04:48:25.408Z,8.37
2018-05-15T04:49:30.346Z,9.27
2018-05-15T04:50:34.578Z,7.80
2018-05-15T04:51:38.760Z,8.30
2018-05-15T04:52:42.933Z,9.17
2018-05-15T04:53:47.120Z,8.00
2018-05-15T04:54:51.290Z,8.70
2018-05-15T04:55:56.276Z,8.27
2018-05-15T04:57:00.441Z,8.00
2018-05-15T04:58:04.704Z,9.10
2018-05-15T04:59:08.957Z,9.10
2018-05-15T05:00:13.142Z,8.27
2018-05-15T05:01:17.331Z,8.60
2018-05-15T05:02:23.016Z,8.90
2018-05-15T05:03:28.005Z,8.40
2018-05-15T05:04:32.263Z,9.93
2018-05-15T05:05:36.635Z,8.77
2018-05-15T05:06:40.890Z,8.80
2018-05-15T05:07:45.053Z,8.70
2018-05-15T05:08:49.252Z,8.70
2018-05-15T05:09:53.429Z,10.10
2018-05-15T05:10:57.624Z,10.20
2018-05-15T05:12:02.570Z,9.60
2018-05-15T05:13:06.764Z,9.90
2018-05-15T05:14:11.724Z,8.67
2018-05-15T05:15:15.893Z,9.90
2018-05-15T05:16:20.841Z,10.03
2018-05-15T05:17:25.150Z,9.53
2018-05-15T05:18:29.317Z,9.43
2018-05-15T05:19:33.500Z,10.10
2018-05-15T05:20:37.685Z,9.10
2018-05-15T05:21:42.000Z,9.53
2018-05-15T05:22:46.696Z,9.70
2018-05-15T05:23:51.634Z,9.50
2018-05-15T05:24:56.588Z,10.73
2018-05-15T05:26:00.769Z,9.73
2018-05-15T05:27:05.763Z,10.13
2018-05-15T05:28:09.930Z,10.03
2018-05-15T05:29:14.114Z,10.20
2018-05-15T05:30:19.062Z,10.30
2018-05-15T05:31:23.305Z,9.27
2018-05-15T05:32:27.968Z,9.67
2018-05-15T05:33:32.905Z,10.57
2018-05-15T05:34:37.860Z,9.57
2018-05-15T05:35:42.143Z,10.80
2018-05-15T05:36:46.368Z,9.90
2018-05-15T05:37:50.566Z,10.40
2018-05-15T05:38:55.498Z,10.97
2018-05-15T05:40:00.449Z,11.30
2018-05-15T05:41:04.642Z,10.17
2018-05-15T05:42:09.254Z,10.30
2018-05-15T05:43:14.197Z,10.73
2018-05-15T05:44:18.365Z,10.47
2018-05-15T05:45:22.537Z,9.20
2018-05-15T05:46:26.767Z,9.93
2018-05-15T05:47:30.927Z,8.90
2018-05-15T05:48:35.857Z,9.50
2018-05-15T05:49:40.792Z,10.10
2018-05-15T05:50:44.959Z,8.87
2018-05-15T05:51:49.282Z,9.47
2018-05-15T05:52:53.458Z,10.53
2018-05-15T05:53:57.638Z,10.13
2018-05-15T05:55:01.826Z,9.87
2018-05-15T05:56:06.936Z,9.43
2018-05-15T05:57:11.251Z,9.70
2018-05-15T05:58:15.467Z,10.07
2018-05-15T05:59:19.652Z,11.70
2018-05-15T06:00:23.816Z,9.70
2018-05-15T06:01:27.989Z,8.20
2018-05-15T06:02:32.543Z,8.90
2018-05-15T06:03:36.741Z,9.70
2018-05-15T06:04:41.673Z,9.93
2018-05-15T06:05:46.609Z,10.37
2018-05-15T06:06:50.789Z,10.13
2018-05-15T06:07:54.989Z,10.27
2018-05-15T06:08:59.641Z,10.23
2018-05-15T06:10:04.589Z,9.87
2018-05-15T06:11:08.760Z,10.23
2018-05-15T06:12:13.717Z,10.30
2018-05-15T06:13:17.899Z,10.90
2018-05-15T06:14:22.140Z,10.90
2018-05-15T06:15:26.317Z,9.77
2018-05-15T06:16:30.497Z,9.57
2018-05-15T06:17:34.669Z,9.90
2018-05-15T06:18:38.836Z,10.33
2018-05-15T06:19:43.028Z,9.47
2018-05-15T06:20:47.225Z,9.67
2018-05-15T06:21:51.445Z,10.50
2018-05-15T06:22:55.623Z,10.40
2018-05-15T06:23:59.798Z,11.50
2018-05-15T06:25:03.985Z,11.23
2018-05-15T06:26:08.164Z,10.87
2018-05-15T06:27:12.365Z,10.70
2018-05-15T06:28:16.546Z,10.57
2018-05-15T06:29:20.769Z,9.70
2018-05-15T06:30:25.721Z,10.30
2018-05-15T06:31:29.944Z,9.83
2018-05-15T06:32:34.113Z,9.60
2018-05-15T06:33:38.311Z,9.30
2018-05-15T06:34:42.503Z,9.73
2018-05-15T06:35:46.779Z,10.30
2018-05-15T06:36:51.016Z,10.67
2018-05-15T06:37:55.185Z,8.93
2018-05-15T06:38:59.356Z,10.20
2018-05-15T06:40:05.142Z,9.80
2018-05-15T06:41:09.313Z,10.60
2018-05-15T06:42:13.682Z,10.27
2018-05-15T06:43:17.844Z,9.90
2018-05-15T06:44:23.521Z,10.17
2018-05-15T06:45:27.690Z,9.50
2018-05-15T06:46:33.367Z,10.30
2018-05-15T06:47:38.312Z,8.87
2018-05-15T06:48:42.843Z,9.63
2018-05-15T06:49:47.018Z,10.17
2018-05-15T06:50:51.966Z,10.63
2018-05-15T06:51:56.144Z,8.93
2018-05-15T06:53:00.329Z,8.50
2018-05-15T06:54:04.687Z,8.90
2018-05-15T06:55:09.635Z,9.23
2018-05-15T06:56:13.821Z,9.90
2018-05-15T06:57:18.748Z,9.30
2018-05-15T06:58:23.698Z,9.60
2018-05-15T06:59:28.388Z,8.80
2018-05-15T07:00:33.317Z,8.47
2018-05-15T07:01:38.289Z,8.90
2018-05-15T07:02:42.458Z,9.10
2018-05-15T07:03:47.388Z,9.03
2018-05-15T07:04:52.472Z,9.63
2018-05-15T07:05:56.640Z,9.97
2018-05-15T07:07:00.801Z,9.43
2018-05-15T07:08:04.974Z,9.53
2018-05-15T07:09:09.136Z,8.53
2018-05-15T07:10:13.942Z,9.50
2018-05-15T07:11:18.207Z,8.50
2018-05-15T07:12:22.372Z,8.87
2018-05-15T07:13:26.555Z,9.13
2018-05-15T07:14:30.720Z,8.53
2018-05-15T07:15:35.682Z,8.63
2018-05-15T07:16:39.951Z,8.33
2018-05-15T07:17:44.116Z,8.40
2018-05-15T07:18:48.335Z,8.67
2018-05-15T07:19:52.506Z,9.27
2018-05-15T07:20:57.442Z,8.43
2018-05-15T07:22:01.697Z,9.73
2018-05-15T07:23:06.588Z,9.37
2018-05-15T07:24:11.172Z,8.40
2018-05-15T07:25:16.122Z,9.10
2018-05-15T07:26:20.288Z,9.03
2018-05-15T07:27:24.525Z,9.17
2018-05-15T07:28:28.641Z,8.30
2018-05-15T07:29:33.713Z,7.90
2018-05-15T07:30:37.882Z,9.20
2018-05-15T07:31:42.839Z,8.83
2018-05-15T07:32:47.001Z,8.03
2018-05-15T07:33:51.178Z,8.43
2018-05-15T07:34:55.360Z,8.47
2018-05-15T07:35:59.525Z,9.07
2018-05-15T07:37:03.697Z,9.17
2018-05-15T07:38:07.884Z,8.80
2018-05-15T07:39:12.045Z,8.77
2018-05-15T07:40:16.284Z,8.83
2018-05-15T07:41:21.213Z,9.63
2018-05-15T07:42:26.146Z,9.90
2018-05-15T07:43:31.083Z,10.10
2018-05-15T07:44:36.006Z,9.40
2018-05-15T07:45:40.223Z,10.27
2018-05-15T07:46:44.394Z,9.40
2018-05-15T07:47:48.591Z,10.37
2018-05-15T07:48:52.760Z,10.50
2018-05-15T07:49:56.937Z,9.60
2018-05-15T07:51:01.258Z,9.57
2018-05-15T07:52:06.202Z,9.03
2018-05-15T07:53:11.137Z,9.17
2018-05-15T07:54:15.300Z,9.60
2018-05-15T07:55:19.469Z,8.67
2018-05-15T07:56:23.692Z,8.37
2018-05-15T07:57:27.861Z,10.00
2018-05-15T07:58:32.896Z,9.33
2018-05-15T07:59:37.077Z,9.00
2018-05-15T08:00:42.771Z,8.67
2018-05-15T08:01:46.963Z,8.00
2018-05-15T08:02:51.900Z,8.97
2018-05-15T08:03:56.073Z,9.60
2018-05-15T08:05:00.236Z,8.70
2018-05-15T08:06:04.433Z,8.80
2018-05-15T08:07:08.657Z,8.30
2018-05-15T08:08:12.830Z,8.70
2018-05-15T08:09:17.760Z,9.00
2018-05-15T08:10:22.693Z,8.30
2018-05-15T08:11:27.625Z,8.33
2018-05-15T08:12:31.826Z,9.67
2018-05-15T08:13:36.770Z,9.03
2018-05-15T08:14:41.061Z,8.53
2018-05-15T08:15:46.006Z,8.97
2018-05-15T08:16:50.177Z,8.67
2018-05-15T08:17:54.341Z,9.47
2018-05-15T08:18:58.507Z,9.80
2018-05-15T08:20:02.741Z,11.80
2018-05-15T08:21:07.673Z,11.73
2018-05-15T08:22:11.848Z,8.87
2018-05-15T08:23:16.028Z,8.10
2018-05-15T08:24:20.211Z,12.60
2018-05-15T08:25:24.435Z,8.20
2018-05-15T08:26:28.601Z,7.77
2018-05-15T08:27:33.536Z,7.77
2018-05-15T08:28:38.464Z,7.27
2018-05-15T08:29:43.388Z,6.83
2018-05-15T08:30:48.374Z,7.10
2018-05-15T08:31:52.644Z,7.40
2018-05-15T08:32:57.581Z,6.23
2018-05-15T08:34:01.875Z,6.50
2018-05-15T08:35:06.828Z,6.27
2018-05-15T08:36:11.013Z,6.17
2018-05-15T08:37:15.979Z,6.47
2018-05-15T08:38:20.143Z,5.77
2018-05-15T08:39:25.274Z,6.30
2018-05-15T08:40:29.414Z,5.73
2018-05-15T08:41:33.802Z,6.63
2018-05-15T08:42:38.736Z,6.60
2018-05-15T08:43:43.679Z,6.77
2018-05-15T08:44:47.846Z,7.40
2018-05-15T08:45:52.013Z,7.40
2018-05-15T08:46:56.525Z,7.20
2018-05-15T08:48:00.699Z,6.70
2018-05-15T08:49:04.874Z,5.80
2018-05-15T08:50:09.032Z,7.00
2018-05-15T08:51:13.982Z,6.97
2018-05-15T08:52:18.586Z,6.43
2018-05-15T08:53:22.763Z,5.60
2018-05-15T08:54:26.937Z,5.63
2018-05-15T08:55:31.097Z,5.33
2018-05-15T08:56:36.029Z,5.40
2018-05-15T08:57:40.215Z,5.67
2018-05-15T08:58:44.377Z,5.73
2018-05-15T08:59:48.555Z,6.40
2018-05-15T09:00:52.765Z,5.83
2018-05-15T09:01:57.733Z,5.33
2018-05-15T09:03:01.888Z,5.70
2018-05-15T09:04:06.074Z,5.10
2018-05-15T09:05:10.261Z,6.37
2018-05-15T09:06:14.486Z,5.10
2018-05-15T09:07:18.650Z,4.90
2018-05-15T09:08:23.572Z,5.50
2018-05-15T09:09:27.773Z,5.60
2018-05-15T09:10:31.937Z,5.40
2018-05-15T09:11:36.130Z,5.33
2018-05-15T09:12:40.332Z,5.30
2018-05-15T09:13:44.528Z,5.40
2018-05-15T09:14:48.684Z,4.90
2018-05-15T09:15:52.849Z,4.30
2018-05-15T09:16:57.781Z,4.23
2018-05-15T09:18:02.710Z,3.90
2018-05-15T09:19:07.807Z,4.80
2018-05-15T09:20:12.669Z,5.10
2018-05-15T09:21:17.599Z,4.53
2018-05-15T09:22:21.814Z,4.57
2018-05-15T09:23:25.980Z,6.60
2018-05-15T09:24:30.318Z,4.43
2018-05-15T09:25:35.260Z,4.30
2018-05-15T09:26:40.195Z,4.10
2018-05-15T09:27:44.366Z,5.20
2018-05-15T09:28:50.034Z,4.30
2018-05-15T09:29:54.989Z,4.10
2018-05-15T09:30:59.181Z,3.37
2018-05-15T09:32:04.293Z,3.50
2018-05-15T09:33:08.470Z,4.00
2018-05-15T09:34:12.646Z,3.87
2018-05-15T09:35:16.810Z,3.60
2018-05-15T09:36:21.087Z,3.90
2018-05-15T09:37:25.272Z,4.70
2018-05-15T09:38:29.447Z,3.43
2018-05-15T09:39:33.622Z,3.53
2018-05-15T09:40:37.816Z,4.00
2018-05-15T09:41:41.981Z,4.03
2018-05-15T09:42:46.154Z,4.20
2018-05-15T09:43:54.137Z,4.20
2018-05-15T09:44:58.298Z,3.80
2018-05-15T09:46:02.485Z,5.10
2018-05-15T09:47:06.692Z,4.10
2018-05-15T09:48:10.916Z,4.93
2018-05-15T09:49:15.253Z,5.27
2018-05-15T09:50:20.194Z,3.77
2018-05-15T09:51:25.122Z,4.10
2018-05-15T09:52:30.048Z,3.87
2018-05-15T09:53:34.982Z,4.53
2018-05-15T09:54:39.213Z,4.90
2018-05-15T09:55:43.368Z,4.20
2018-05-15T09:56:47.538Z,4.80
2018-05-15T09:57:51.705Z,4.90
2018-05-15T09:58:56.638Z,4.13
2018-05-15T10:00:02.077Z,4.60
2018-05-15T10:01:07.013Z,4.27
2018-05-15T10:02:12.085Z,3.97
2018-05-15T10:03:16.273Z,4.00
2018-05-15T10:04:20.441Z,5.00
2018-05-15T10:05:25.404Z,4.50
2018-05-15T10:06:29.568Z,4.60
2018-05-15T10:07:33.914Z,4.97
2018-05-15T10:08:38.850Z,4.57
2018-05-15T10:09:43.005Z,4.60
2018-05-15T10:10:47.168Z,4.80
2018-05-15T10:11:51.376Z,3.90
2018-05-15T10:12:55.590Z,6.03
2018-05-15T10:13:59.748Z,4.77
2018-05-15T10:15:03.922Z,6.00
2018-05-15T10:16:08.098Z,5.30
2018-05-15T10:17:13.035Z,4.77
2018-05-15T10:18:17.994Z,5.20
2018-05-15T10:19:22.148Z,4.10
2018-05-15T10:20:26.323Z,4.77
2018-05-15T10:21:30.501Z,5.43
2018-05-15T10:22:35.309Z,5.17
2018-05-15T10:23:40.228Z,4.67
2018-05-15T10:24:45.168Z,5.60
2018-05-15T10:25:50.184Z,5.30
2018-05-15T10:26:54.352Z,5.40
2018-05-15T10:27:58.725Z,5.57
2018-05-15T10:29:03.662Z,4.80
2018-05-15T10:30:07.854Z,4.80
2018-05-15T10:31:12.026Z,5.73
2018-05-15T10:32:16.230Z,5.60
2018-05-15T10:33:20.541Z,5.03
2018-05-15T10:34:24.705Z,4.77
2018-05-15T10:35:29.641Z,5.43
2018-05-15T10:36:34.565Z,5.70
2018-05-15T10:37:39.685Z,5.50
2018-05-15T10:38:43.914Z,5.20
2018-05-15T10:39:48.077Z,4.97
2018-05-15T10:40:52.245Z,5.73
2018-05-15T10:41:56.411Z,5.30
2018-05-15T10:43:00.601Z,5.03
2018-05-15T10:44:04.863Z,5.60
2018-05-15T10:45:08.970Z,5.30
2018-05-15T10:46:13.914Z,5.90
2018-05-15T10:47:18.508Z,5.93
2018-05-15T10:48:23.432Z,5.70
2018-05-15T10:49:28.384Z,6.17
2018-05-15T10:50:32.639Z,5.90
2018-05-15T10:51:36.816Z,5.40
2018-05-15T10:52:41.215Z,6.47
2018-05-15T10:53:45.407Z,6.10
2018-05-15T10:54:50.386Z,5.50
2018-05-15T10:55:54.550Z,6.17
2018-05-15T10:56:59.486Z,5.57
2018-05-15T10:58:03.750Z,6.07
2018-05-15T10:59:07.919Z,6.60
2018-05-15T11:00:12.094Z,6.30
2018-05-15T11:01:16.261Z,5.77
2018-05-15T11:02:20.443Z,5.30
2018-05-15T11:03:25.431Z,6.30
2018-05-15T11:04:30.366Z,5.73
2018-05-15T11:05:34.558Z,5.30
2018-05-15T11:06:38.754Z,7.47
2018-05-15T11:07:42.912Z,6.30
2018-05-15T11:08:47.994Z,6.43
2018-05-15T11:09:52.169Z,6.63
2018-05-15T11:10:57.112Z,6.97
2018-05-15T11:12:01.277Z,6.37
2018-05-15T11:13:05.443Z,6.33
2018-05-15T11:14:09.629Z,5.80
2018-05-15T11:15:13.815Z,6.30
2018-05-15T11:16:17.973Z,7.00
2018-05-15T11:17:22.133Z,6.30
2018-05-15T11:18:44.029Z,6.60
2018-05-15T11:20:06.414Z,7.80
2018-05-15T11:21:29.162Z,7.23
2018-05-15T11:22:51.949Z,7.50
2018-05-15T11:25:52.345Z,7.03
2018-05-15T11:26:57.272Z,6.90
2018-05-15T11:28:02.204Z,6.80
2018-05-15T11:29:07.145Z,6.10
2018-05-15T11:30:11.310Z,5.90
2018-05-15T11:31:15.507Z,7.07
2018-05-15T11:32:19.681Z,6.70
2018-05-15T11:33:23.846Z,6.97
2018-05-15T11:34:28.808Z,6.50
2018-05-15T11:35:33.797Z,6.67
2018-05-15T11:36:37.974Z,5.77
2018-05-15T11:37:42.141Z,5.90
2018-05-15T11:38:47.073Z,6.67
2018-05-15T11:39:52.006Z,7.83
2018-05-15T11:40:56.966Z,6.63
2018-05-15T11:42:01.129Z,6.67
2018-05-15T11:43:05.293Z,6.70
2018-05-15T11:44:09.458Z,7.77
2018-05-15T11:45:14.424Z,6.23
2018-05-15T11:46:18.607Z,6.60
2018-05-15T11:47:23.550Z,6.50
2018-05-15T11:48:28.254Z,6.23
2018-05-15T11:49:33.172Z,6.73
2018-05-15T11:50:37.909Z,6.50
2018-05-15T11:51:41.982Z,6.30
2018-05-15T11:52:46.815Z,5.40
2018-05-15T11:53:50.481Z,5.90
2018-05-15T11:54:55.352Z,5.60
2018-05-15T11:56:00.378Z,5.20
2018-05-15T11:57:04.528Z,5.27
2018-05-15T11:58:08.712Z,6.03
2018-05-15T11:59:13.651Z,6.00
2018-05-15T12:00:17.817Z,5.27
2018-05-15T12:01:21.997Z,5.67
2018-05-15T12:02:26.195Z,5.40
2018-05-15T12:03:30.346Z,5.50
2018-05-15T12:04:34.950Z,5.90
2018-05-15T12:05:39.159Z,5.80
2018-05-15T12:06:43.508Z,6.10
2018-05-15T12:07:48.451Z,5.83
2018-05-15T12:08:53.381Z,5.60
2018-05-15T12:09:57.553Z,5.90
2018-05-15T12:11:01.719Z,4.83
2018-05-15T12:12:06.043Z,4.80
2018-05-15T12:13:10.214Z,4.97
2018-05-15T12:14:15.145Z,5.40
2018-05-15T12:15:20.086Z,5.30
2018-05-15T12:16:24.250Z,5.07
2018-05-15T12:17:28.440Z,4.53
2018-05-15T12:18:32.694Z,4.93
2018-05-15T12:19:36.805Z,4.90
2018-05-15T12:20:41.732Z,4.77
2018-05-15T12:21:46.704Z,4.40
2018-05-15T12:22:50.869Z,4.87
2018-05-15T12:23:55.801Z,4.57
2018-05-15T12:25:00.740Z,5.70
2018-05-15T12:26:04.954Z,5.00
2018-05-15T12:27:09.146Z,5.63
2018-05-15T12:28:14.102Z,4.93
2018-05-15T12:29:18.274Z,4.93
2018-05-15T12:30:22.446Z,5.50
2018-05-15T12:31:26.614Z,5.40
2018-05-15T12:32:30.785Z,4.93
2018-05-15T12:33:34.982Z,5.40
2018-05-15T12:34:39.149Z,5.40
2018-05-15T12:35:43.318Z,4.53
2018-05-15T12:36:47.497Z,5.77
2018-05-15T12:37:51.675Z,4.77
2018-05-15T12:38:56.624Z,4.87
2018-05-15T12:40:00.814Z,4.30
2018-05-15T12:41:05.801Z,4.77
2018-05-15T12:42:10.214Z,4.60
2018-05-15T12:43:14.173Z,4.50
2018-05-15T12:44:18.338Z,4.60
2018-05-15T12:45:22.506Z,3.73
2018-05-15T12:46:26.693Z,4.67
2018-05-15T12:47:30.852Z,5.10
2018-05-15T12:48:35.052Z,4.60
2018-05-15T12:49:39.231Z,4.70
2018-05-15T12:50:43.633Z,5.57
2018-05-15T12:51:48.556Z,5.90
2018-05-15T12:52:53.481Z,5.03
2018-05-15T12:53:57.721Z,5.10
2018-05-15T12:55:02.645Z,5.20
2018-05-15T12:56:06.848Z,4.60
2018-05-15T12:57:11.017Z,4.63
2018-05-15T12:58:15.181Z,4.40
2018-05-15T12:59:19.350Z,4.00
2018-05-15T13:00:24.303Z,4.90
2018-05-15T13:01:28.553Z,4.30
2018-05-15T13:02:32.734Z,4.00
2018-05-15T13:03:36.905Z,3.60
2018-05-15T13:04:41.073Z,4.87
2018-05-15T13:05:45.251Z,4.87
2018-05-15T13:06:49.440Z,5.27
2018-05-15T13:07:53.601Z,5.03
2018-05-15T13:08:58.062Z,4.23
2018-05-15T13:10:02.220Z,5.00
2018-05-15T13:11:06.381Z,4.80
2018-05-15T13:12:10.597Z,5.07
2018-05-15T13:13:14.765Z,4.30
2018-05-15T13:14:18.958Z,4.80
2018-05-15T13:15:23.153Z,5.20
2018-05-15T13:16:27.325Z,4.60
2018-05-15T13:17:31.521Z,4.83
2018-05-15T13:18:35.736Z,3.87
2018-05-15T13:19:39.942Z,4.50
2018-05-15T13:20:44.115Z,4.80
2018-05-15T13:21:48.314Z,4.23
2018-05-15T13:22:52.486Z,5.10
2018-05-15T13:23:56.668Z,4.47
2018-05-15T13:25:00.840Z,3.77
2018-05-15T13:26:05.036Z,4.40
2018-05-15T13:27:10.035Z,4.50
2018-05-15T13:28:14.202Z,3.97
2018-05-15T13:29:18.366Z,4.03
2018-05-15T13:30:22.529Z,4.60
2018-05-15T13:31:26.717Z,3.80
2018-05-15T13:32:30.933Z,4.40
2018-05-15T13:33:35.111Z,3.60
2018-05-15T13:34:40.049Z,3.27
2018-05-15T13:35:44.972Z,3.80
2018-05-15T13:36:49.917Z,3.57
2018-05-15T13:37:54.099Z,4.10
2018-05-15T13:38:58.349Z,4.23
2018-05-15T13:40:02.513Z,3.73
2018-05-15T13:41:25.983Z,4.17
2018-05-15T13:42:30.178Z,3.40
2018-05-15T13:43:34.360Z,4.10
2018-05-15T13:44:38.548Z,4.30
2018-05-15T13:45:42.705Z,4.07
2018-05-15T13:46:46.873Z,4.27
2018-05-15T13:47:51.570Z,3.57
2018-05-15T13:48:56.611Z,4.60
2018-05-15T13:50:01.542Z,3.80
2018-05-15T13:51:06.470Z,4.93
2018-05-15T13:52:10.638Z,3.63
2018-05-15T13:53:14.891Z,3.83
2018-05-15T13:54:19.077Z,3.70
2018-05-15T13:55:23.236Z,3.50
2018-05-15T13:56:27.400Z,3.30
2018-05-15T13:57:31.560Z,3.17
2018-05-15T13:58:35.801Z,3.40
2018-05-15T13:59:39.967Z,3.60
2018-05-15T14:00:44.142Z,3.80
2018-05-15T14:01:49.081Z,3.93
2018-05-15T14:02:53.274Z,3.90
2018-05-15T14:03:57.914Z,4.03
2018-05-15T14:05:02.841Z,3.53
2018-05-15T14:06:07.789Z,4.33
2018-05-15T14:07:11.958Z,3.40
2018-05-15T14:08:16.126Z,4.10
2018-05-15T14:09:20.485Z,3.57
2018-05-15T14:10:25.422Z,3.40
2018-05-15T14:11:30.353Z,3.50
2018-05-15T14:12:35.365Z,3.40
2018-05-15T14:13:39.487Z,3.70
2018-05-15T14:14:44.503Z,4.27
2018-05-15T14:15:48.674Z,4.40
2018-05-15T14:16:52.833Z,4.53
2018-05-15T14:17:57.777Z,5.20
2018-05-15T14:19:02.713Z,3.83
2018-05-15T14:20:07.109Z,4.97
2018-05-15T14:21:12.041Z,3.87